METAR & TAF

RJTE 261949Z 35004KT 310V020 9999 BKN010 SCT030 BKN140 23/21 Q1010 RMK 5ST010 4SC030 7AC140 A2983
RJTE 261815Z 01005KT 5000 BR FEW008 SCT012 BKN030 23/21 Q1009 RMK 2ST008 4SC012 7SC030 A2981
No TAF found for RJTE